Time;durP1;ratioP1;P1;durP2;ratioP2;P2;SDS_P1;SDS_P2;PMS_P1;PMS_P2;Temp;Humidity;BMP_temperature;BMP_pressure;BME280_temperature;BME280_humidity;BME280_pressure;Samples;Min_cycle;Max_cycle;Signal;HPM_P1;HPM_P2
2022/04/15 00:00:47;;;;;;;7.08;5.00;;;;;;;21.39;49.92;98781.63;1882206;76;25760;-89
2022/04/15 00:03:13;;;;;;;6.12;4.87;;;;;;;21.40;49.96;98783.83;1881997;76;26471;-90
2022/04/15 00:05:41;;;;;;;8.00;5.10;;;;;;;21.40;49.96;98787.42;1881976;76;25757;-89
2022/04/15 00:08:11;;;;;;;6.05;4.45;;;;;;;21.39;49.96;98783.63;1881740;76;27253;-89
2022/04/15 00:10:45;;;;;;;7.08;5.17;;;;;;;21.40;49.95;98792.19;1881018;76;25633;-89
2022/04/15 00:13:12;;;;;;;5.58;4.37;;;;;;;21.38;49.97;98793.97;1880655;76;25885;-90
2022/04/15 00:15:35;;;;;;;6.95;4.75;;;;;;;21.38;49.98;98785.61;1881226;76;25644;-89
2022/04/15 00:18:01;;;;;;;6.85;5.03;;;;;;;21.39;49.98;98787.81;1882165;76;25403;-89
2022/04/15 00:20:28;;;;;;;6.58;4.72;;;;;;;21.38;49.99;98788.98;1882098;76;27405;-89
2022/04/15 00:22:54;;;;;;;7.00;5.08;;;;;;;21.38;50.00;98783.40;1882051;76;25458;-90
2022/04/15 00:25:21;;;;;;;7.30;5.15;;;;;;;21.36;50.01;98782.39;1882088;76;25547;-90
2022/04/15 00:27:47;;;;;;;8.85;5.12;;;;;;;21.35;50.03;98781.37;1877787;76;25713;-86
2022/04/15 00:30:13;;;;;;;6.83;5.10;;;;;;;21.35;50.03;98779.98;1880500;76;25625;-85
2022/04/15 00:32:41;;;;;;;6.20;4.70;;;;;;;21.33;50.08;98781.80;1880679;76;27441;-85
2022/04/15 00:35:09;;;;;;;6.30;4.50;;;;;;;21.34;50.09;98785.36;1880398;76;25847;-85
2022/04/15 00:37:35;;;;;;;5.95;4.67;;;;;;;21.34;50.06;98786.76;1877335;76;26269;-87
2022/04/15 00:40:02;;;;;;;6.37;4.55;;;;;;;21.32;50.09;98789.92;1878758;76;25833;-86
2022/04/15 00:42:30;;;;;;;5.53;4.28;;;;;;;21.34;50.07;98788.96;1879041;76;25375;-85
2022/04/15 00:44:58;;;;;;;6.00;4.47;;;;;;;21.35;50.08;98794.73;1878850;76;27426;-86
2022/04/15 00:47:54;;;;;;;6.92;4.65;;;;;;;21.33;50.10;98789.34;1878833;76;25834;-86
2022/04/15 00:50:28;;;;;;;6.80;4.97;;;;;;;21.33;50.12;98791.55;1878893;76;25459;-85
2022/04/15 00:53:01;;;;;;;7.33;4.75;;;;;;;21.34;50.08;98797.33;1877882;76;25691;-85
2022/04/15 00:55:28;;;;;;;6.22;4.37;;;;;;;21.33;50.10;98797.13;1878595;76;25645;-85
2022/04/15 00:58:02;;;;;;;5.45;4.60;;;;;;;21.33;50.11;98799.91;1878835;76;27254;-85
2022/04/15 01:00:32;;;;;;;5.67;4.62;;;;;;;21.33;50.11;98793.53;1878935;76;25567;-85
2022/04/15 01:03:03;;;;;;;5.90;4.72;;;;;;;21.33;50.11;98793.53;1878983;76;25424;-85
2022/04/15 01:05:29;;;;;;;6.20;4.87;;;;;;;21.33;50.11;98792.13;1879057;76;25679;-87
2022/04/15 01:07:57;;;;;;;6.42;4.87;;;;;;;21.31;50.13;98794.72;1878944;76;25373;-85
2022/04/15 01:10:26;;;;;;;6.75;4.95;;;;;;;21.30;50.12;98801.45;1878867;76;27466;-85
2022/04/15 01:12:55;;;;;;;6.75;4.72;;;;;;;21.30;50.13;98797.28;1878724;76;25990;-85
2022/04/15 01:15:24;;;;;;;7.33;4.85;;;;;;;21.31;50.11;98796.11;1878839;76;25641;-86
2022/04/15 01:17:51;;;;;;;6.08;4.87;;;;;;;21.31;50.13;98793.33;1878746;76;26591;-86
2022/04/15 01:20:17;;;;;;;6.78;4.75;;;;;;;21.31;50.11;98796.11;1878883;76;25622;-87
2022/04/15 01:22:47;;;;;;;5.35;4.40;;;;;;;21.31;50.13;98797.51;1878935;76;27338;-86
2022/04/15 01:25:17;;;;;;;5.47;4.20;;;;;;;21.31;50.16;98799.48;1879108;76;25702;-85
2022/04/15 01:27:46;;;;;;;5.65;4.60;;;;;;;21.28;50.14;98799.67;1878542;76;25683;-85
2022/04/15 01:30:19;;;;;;;6.83;4.67;;;;;;;21.27;50.18;98802.22;1878826;76;25954;-87
2022/04/15 01:32:47;;;;;;;6.03;5.00;;;;;;;21.27;50.20;98805.63;1879032;76;25593;-90
2022/04/15 01:35:17;;;;;;;8.00;5.08;;;;;;;21.26;50.19;98806.20;1878921;76;27554;-91
2022/04/15 01:37:46;;;;;;;5.45;4.70;;;;;;;21.25;50.21;98809.38;1878570;76;25574;-89
2022/04/15 01:40:15;;;;;;;6.55;4.95;;;;;;;21.25;50.22;98812.16;1878833;76;25784;-90
2022/04/15 01:42:43;;;;;;;6.10;4.55;;;;;;;21.25;50.23;98813.55;1878785;76;26496;-91
2022/04/15 01:45:11;;;;;;;6.05;4.62;;;;;;;21.24;50.22;98804.38;1878802;76;25421;-91
2022/04/15 01:47:37;;;;;;;5.97;4.50;;;;;;;21.23;50.25;98806.16;1878806;76;27383;-91
2022/04/15 01:50:06;;;;;;;5.67;4.37;;;;;;;21.22;50.27;98804.56;1878982;76;25812;-85
2022/04/15 01:52:32;;;;;;;5.70;4.50;;;;;;;21.22;50.31;98803.17;1878855;76;25664;-86
2022/04/15 01:54:59;;;;;;;6.35;4.83;;;;;;;21.19;50.32;98808.92;1878786;76;26699;-85
2022/04/15 01:57:25;;;;;;;5.60;4.45;;;;;;;21.19;50.34;98806.14;1878901;76;25557;-86
2022/04/15 01:59:52;;;;;;;6.60;4.40;;;;;;;21.19;50.33;98813.89;1878926;76;27339;-88
2022/04/15 02:02:18;;;;;;;6.97;5.00;;;;;;;21.19;50.34;98813.11;1879033;76;25385;-85
2022/04/15 02:04:44;;;;;;;6.08;4.65;;;;;;;21.18;50.35;98812.87;1879149;76;25726;-87
2022/04/15 02:07:10;;;;;;;6.55;4.92;;;;;;;21.18;50.34;98817.05;1879052;76;25750;-85
2022/04/15 02:09:36;;;;;;;5.75;4.65;;;;;;;21.16;50.35;98822.23;1879019;76;25443;-87
2022/04/15 02:12:04;;;;;;;7.03;4.80;;;;;;;21.14;50.42;98819.83;1879088;76;27397;-85
2022/04/15 02:14:30;;;;;;;5.47;4.53;;;;;;;21.17;50.38;98823.83;1878824;76;25633;-86
2022/04/15 02:16:57;;;;;;;5.92;4.37;;;;;;;21.15;50.39;98822.81;1879087;76;25401;-86
2022/04/15 02:19:24;;;;;;;6.40;4.83;;;;;;;21.14;50.43;98828.19;1878762;76;26736;-88
2022/04/15 02:21:50;;;;;;;6.17;4.85;;;;;;;21.14;50.45;98830.16;1878980;76;25652;-85
2022/04/15 02:24:17;;;;;;;5.15;4.33;;;;;;;21.14;50.45;98828.77;1878948;76;28433;-85
2022/04/15 02:26:43;;;;;;;5.67;4.55;;;;;;;21.15;50.40;98836.74;1878506;76;26080;-86
2022/04/15 02:29:10;;;;;;;5.20;4.37;;;;;;;21.14;50.46;98839.91;1878956;76;25563;-84
2022/04/15 02:31:36;;;;;;;6.20;4.80;;;;;;;21.12;50.50;98843.08;1878653;76;25677;-85
2022/04/15 02:34:03;;;;;;;6.17;4.62;;;;;;;21.13;50.50;98838.31;1879211;76;25534;-86
2022/04/15 02:36:29;;;;;;;5.58;4.40;;;;;;;21.13;50.50;98839.09;1878825;76;28221;-85
2022/04/15 02:38:55;;;;;;;6.15;4.75;;;;;;;21.10;50.48;98839.86;1879000;76;25438;-89
2022/04/15 02:41:21;;;;;;;5.78;4.47;;;;;;;21.12;50.55;98845.05;1878987;76;25455;-90
2022/04/15 02:43:48;;;;;;;6.53;4.72;;;;;;;21.11;50.53;98842.87;1879153;76;26039;-89
2022/04/15 02:46:14;;;;;;;5.87;4.47;;;;;;;21.10;50.54;98841.86;1879109;76;25440;-90
2022/04/15 02:48:40;;;;;;;5.35;4.60;;;;;;;21.10;50.55;98837.69;1879061;76;28152;-91
2022/04/15 02:51:06;;;;;;;6.42;4.87;;;;;;;21.10;50.55;98845.43;1878904;76;25640;-90
2022/04/15 02:53:33;;;;;;;5.37;4.30;;;;;;;21.12;50.56;98845.05;1879174;76;25611;-89
2022/04/15 02:55:59;;;;;;;6.17;4.92;;;;;;;21.12;50.53;98842.27;1878949;76;25627;-89
2022/04/15 02:58:25;;;;;;;6.22;4.67;;;;;;;21.12;50.52;98838.90;1879132;76;25630;-89
2022/04/15 03:00:52;;;;;;;6.42;4.70;;;;;;;21.12;50.53;98838.90;1879026;76;28279;-90
2022/04/15 03:03:18;;;;;;;6.45;4.50;;;;;;;21.11;50.53;98842.87;1878860;76;25581;-89
2022/04/15 03:05:44;;;;;;;5.60;4.42;;;;;;;21.12;50.51;98847.84;1879079;76;25538;-90
2022/04/15 03:08:10;;;;;;;5.08;4.58;;;;;;;21.10;50.57;98854.40;1878885;76;25751;-91
2022/04/15 03:10:36;;;;;;;5.62;4.45;;;;;;;21.10;50.57;98859.97;1878969;76;25557;-90
2022/04/15 03:13:02;;;;;;;5.90;4.75;;;;;;;21.09;50.56;98862.53;1878911;76;28244;-85
2022/04/15 03:15:28;;;;;;;5.75;4.42;;;;;;;21.11;50.57;98869.34;1878951;76;25385;-85
2022/04/15 03:17:55;;;;;;;7.53;4.92;;;;;;;21.12;50.56;98870.12;1878640;76;25448;-87
2022/04/15 03:20:21;;;;;;;6.17;4.47;;;;;;;21.10;50.56;98866.33;1878852;76;25659;-85
2022/04/15 03:22:47;;;;;;;5.30;4.37;;;;;;;21.10;50.57;98873.30;1878989;76;25464;-87
2022/04/15 03:25:17;;;;;;;6.22;4.50;;;;;;;21.11;50.56;98879.09;1878910;76;28216;-84
2022/04/15 03:27:44;;;;;;;6.03;4.60;;;;;;;21.10;50.58;98878.09;1878977;76;25653;-85
2022/04/15 03:30:11;;;;;;;5.65;4.35;;;;;;;21.11;50.57;98881.08;1879053;76;25699;-87
2022/04/15 03:32:52;;;;;;;6.37;4.50;;;;;;;21.10;50.56;98884.44;1878911;76;26582;-87
2022/04/15 03:35:21;;;;;;;5.65;4.10;;;;;;;21.10;50.58;98883.05;1879087;76;25843;-87
2022/04/15 03:37:50;;;;;;;5.62;4.50;;;;;;;21.11;50.57;98884.67;1878235;76;28341;-85
2022/04/15 03:40:18;;;;;;;5.12;4.17;;;;;;;21.11;50.56;98885.25;1877975;76;25847;-85
2022/04/15 03:42:47;;;;;;;6.55;4.42;;;;;;;21.10;50.57;98885.83;1878613;76;25415;-86
2022/04/15 03:45:18;;;;;;;7.30;4.85;;;;;;;21.11;50.62;98890.24;1878619;76;26439;-86
2022/04/15 03:47:42;;;;;;;5.80;4.75;;;;;;;21.12;50.36;98882.66;1878013;76;25691;-88
2022/04/15 03:50:10;;;;;;;5.62;4.30;;;;;;;21.11;50.40;98886.06;1878829;76;27459;-87
2022/04/15 03:52:42;;;;;;;6.08;4.70;;;;;;;21.10;50.40;98890.63;1878438;76;25404;-84
2022/04/15 03:55:10;;;;;;;6.25;4.83;;;;;;;21.06;50.44;98881.63;1878132;76;25419;-84
2022/04/15 03:57:37;;;;;;;6.58;5.00;;;;;;;21.09;50.40;98880.06;1878569;76;25531;-83
2022/04/15 04:00:10;;;;;;;6.25;5.03;;;;;;;21.09;50.20;98881.45;1878271;76;25679;-83
2022/04/15 04:02:37;;;;;;;6.67;4.85;;;;;;;21.09;50.13;98878.66;1878847;76;28445;-86
2022/04/15 04:05:05;;;;;;;7.28;5.15;;;;;;;21.05;50.15;98877.25;1878515;76;25554;-85
2022/04/15 04:07:31;;;;;;;5.62;4.78;;;;;;;21.04;50.16;98874.23;1878575;76;25620;-87
2022/04/15 04:09:58;;;;;;;7.28;4.97;;;;;;;21.00;50.26;98875.37;1878658;76;25610;-85
2022/04/15 04:12:24;;;;;;;6.65;5.22;;;;;;;20.98;50.42;98856.86;1878730;76;25391;-85
2022/04/15 04:14:50;;;;;;;8.05;5.55;;;;;;;20.99;50.38;98843.94;1876994;76;28255;-85
2022/04/15 04:17:16;;;;;;;6.97;5.47;;;;;;;21.03;50.34;98839.78;1877059;76;25635;-85
2022/04/15 04:19:42;;;;;;;7.22;5.37;;;;;;;21.04;50.30;98833.84;1878623;76;25396;-85
2022/04/15 04:22:08;;;;;;;6.22;5.17;;;;;;;21.05;50.25;98838.83;1878655;76;26555;-84
2022/04/15 04:24:34;;;;;;;7.08;5.08;;;;;;;21.04;50.43;98842.80;1878593;76;25586;-84
2022/04/15 04:27:00;;;;;;;6.25;5.10;;;;;;;21.04;50.46;98845.59;1878499;76;27364;-84
2022/04/15 04:29:26;;;;;;;10.68;5.28;;;;;;;21.05;50.38;98831.86;1878535;76;26107;-85
2022/04/15 04:31:51;;;;;;;6.87;5.20;;;;;;;21.04;50.35;98817.73;1878700;76;25661;-86
2022/04/15 04:34:17;;;;;;;6.53;5.10;;;;;;;21.05;50.39;98825.70;1878554;76;25739;-85
2022/04/15 04:36:44;;;;;;;9.80;5.20;;;;;;;21.06;50.43;98866.30;1878601;76;25399;-84
2022/04/15 04:39:10;;;;;;;9.83;5.10;;;;;;;21.06;50.39;98889.17;1878207;76;27429;-83
2022/04/15 04:41:38;;;;;;;5.90;4.95;;;;;;;21.01;50.55;98887.52;1878580;76;25685;-83
2022/04/15 04:44:05;;;;;;;6.10;5.05;;;;;;;20.99;50.70;98889.09;1878552;76;25440;-84
2022/04/15 04:46:32;;;;;;;7.45;5.03;;;;;;;20.97;50.79;98892.84;1878058;76;26492;-83
2022/04/15 04:48:59;;;;;;;8.03;5.05;;;;;;;20.93;50.85;98869.92;1878050;76;25622;-83
2022/04/15 04:51:25;;;;;;;7.22;5.50;;;;;;;20.90;50.84;98848.39;1878572;76;27579;-83
2022/04/15 04:53:51;;;;;;;12.18;5.70;;;;;;;20.91;50.95;98893.19;1878523;76;25700;-83
2022/04/15 04:56:17;;;;;;;11.97;6.17;;;;;;;20.92;50.97;98916.26;1878605;76;25562;-84
2022/04/15 04:58:43;;;;;;;11.05;5.80;;;;;;;20.95;50.88;98919.68;1878644;76;26480;-84
2022/04/15 05:01:09;;;;;;;9.33;5.53;;;;;;;20.96;50.83;98914.34;1878537;76;25597;-83
2022/04/15 05:03:35;;;;;;;9.40;5.97;;;;;;;20.96;50.82;98921.88;1878692;76;27404;-83
2022/04/15 05:06:02;;;;;;;9.48;5.40;;;;;;;20.95;50.88;98915.50;1878531;76;25967;-84
2022/04/15 05:08:28;;;;;;;7.70;5.03;;;;;;;20.96;50.88;98921.88;1878261;76;25578;-84
2022/04/15 05:10:54;;;;;;;7.50;5.00;;;;;;;20.95;50.92;98923.08;1878589;76;26465;-83
2022/04/15 05:13:20;;;;;;;7.15;4.92;;;;;;;20.94;50.92;98925.05;1878613;76;25634;-83
2022/04/15 05:15:46;;;;;;;8.50;5.22;;;;;;;20.93;50.96;98919.28;1878522;76;27571;-83
2022/04/15 05:18:12;;;;;;;7.33;4.75;;;;;;;20.93;50.97;98915.88;1878413;76;25632;-84
2022/04/15 05:20:38;;;;;;;7.58;5.35;;;;;;;20.95;50.94;98912.72;1878696;76;25618;-84
2022/04/15 05:23:04;;;;;;;8.53;4.97;;;;;;;20.95;50.94;98908.54;1878607;76;25864;-83
2022/04/15 05:25:30;;;;;;;8.33;5.42;;;;;;;20.96;50.95;98916.31;1878643;76;25435;-83
2022/04/15 05:27:58;;;;;;;7.00;4.95;;;;;;;20.94;50.99;98922.27;1878498;76;27396;-84
2022/04/15 05:30:25;;;;;;;9.50;5.33;;;;;;;20.95;50.97;98924.47;1878088;76;25384;-83
2022/04/15 05:32:51;;;;;;;6.28;4.72;;;;;;;20.97;50.95;98915.12;1878589;76;25399;-83
2022/04/15 05:35:18;;;;;;;9.78;5.40;;;;;;;20.94;50.96;98909.73;1878751;76;25822;-84
2022/04/15 05:37:44;;;;;;;7.05;4.92;;;;;;;20.95;50.98;98918.90;1878815;75;25605;-84
2022/04/15 05:40:11;;;;;;;16.30;5.58;;;;;;;20.95;50.97;98922.47;1879188;76;27462;-83
2022/04/15 05:42:38;;;;;;;8.85;5.15;;;;;;;20.95;50.99;98933.61;1878997;76;25797;-85
2022/04/15 05:45:05;;;;;;;10.00;5.67;;;;;;;20.96;50.96;98938.60;1879131;76;25459;-87
2022/04/15 05:47:31;;;;;;;7.87;4.58;;;;;;;20.97;50.99;98929.05;1878930;76;25718;-87
2022/04/15 05:49:58;;;;;;;7.37;4.50;;;;;;;20.97;51.00;98923.48;1879058;76;25427;-87
2022/04/15 05:52:24;;;;;;;9.88;5.50;;;;;;;20.97;50.95;98927.66;1879250;76;27339;-88
2022/04/15 05:54:50;;;;;;;6.70;4.87;;;;;;;20.96;50.97;98931.05;1878881;76;25443;-88
2022/04/15 05:57:19;;;;;;;8.25;5.10;;;;;;;20.95;51.01;98925.86;1879077;76;25561;-84
2022/04/15 05:59:45;;;;;;;7.17;5.00;;;;;;;20.95;51.01;98916.11;1878457;76;25362;-83
2022/04/15 06:02:11;;;;;;;9.35;5.87;;;;;;;20.95;51.05;98913.33;1879051;76;25612;-84
2022/04/15 06:04:37;;;;;;;9.33;5.83;;;;;;;20.94;50.87;98916.69;1879200;76;27329;-84
2022/04/15 06:07:04;;;;;;;9.43;5.97;;;;;;;20.93;50.80;98913.09;1878359;76;25899;-84
2022/04/15 06:09:30;;;;;;;10.28;5.60;;;;;;;20.93;50.79;98913.09;1879112;76;25392;-84
2022/04/15 06:11:57;;;;;;;8.58;5.58;;;;;;;20.95;50.76;98920.30;1879050;76;25663;-84
2022/04/15 06:14:23;;;;;;;10.23;5.90;;;;;;;20.93;50.79;98921.45;1879086;76;25559;-85
2022/04/15 06:16:51;;;;;;;8.78;5.60;;;;;;;20.92;50.85;98910.69;1879128;76;28095;-85
2022/04/15 06:19:17;;;;;;;8.83;5.70;;;;;;;20.92;50.91;98917.07;1878499;76;25951;-84
2022/04/15 06:21:44;;;;;;;8.55;5.53;;;;;;;20.90;50.95;98917.22;1878917;76;25452;-85
2022/04/15 06:24:10;;;;;;;9.13;5.28;;;;;;;20.88;51.16;98924.55;1879048;76;25376;-87
2022/04/15 06:26:37;;;;;;;8.48;5.90;;;;;;;20.90;51.06;98921.39;1878955;76;25637;-85
2022/04/15 06:29:04;;;;;;;8.55;5.33;;;;;;;20.92;51.01;98920.44;1879147;76;27390;-84
2022/04/15 06:31:31;;;;;;;9.60;5.72;;;;;;;20.89;51.24;98920.58;1878545;76;25427;-86
2022/04/15 06:33:57;;;;;;;9.15;5.37;;;;;;;20.89;51.31;98928.13;1879106;76;25538;-84
2022/04/15 06:36:24;;;;;;;9.03;6.10;;;;;;;20.87;51.31;98924.32;1879017;76;25684;-85
2022/04/15 06:38:51;;;;;;;8.28;6.33;;;;;;;20.83;51.36;98922.09;1878611;76;25357;-86
2022/04/15 06:41:17;;;;;;;9.58;6.00;;;;;;;20.86;51.42;98926.09;1878293;76;27475;-85
2022/04/15 06:43:43;;;;;;;8.25;6.03;;;;;;;20.86;51.49;98931.08;1878689;76;25618;-87
2022/04/15 06:46:10;;;;;;;11.00;6.87;;;;;;;20.86;51.60;98935.26;1878732;76;25581;-85
2022/04/15 06:48:36;;;;;;;9.40;6.47;;;;;;;20.85;51.81;98931.45;1878683;76;25674;-83
2022/04/15 06:51:03;;;;;;;12.90;6.95;;;;;;;20.86;51.93;98935.26;1878775;76;25539;-87
2022/04/15 06:53:30;;;;;;;9.43;7.03;;;;;;;20.84;52.06;98932.65;1878604;76;28211;-85
2022/04/15 06:55:56;;;;;;;11.03;6.90;;;;;;;20.84;52.16;98939.61;1878629;76;25614;-86
2022/04/15 06:58:23;;;;;;;10.43;6.90;;;;;;;20.87;52.19;98944.43;1879197;76;25368;-85
2022/04/15 07:00:52;;;;;;;9.93;6.70;;;;;;;20.86;52.22;98940.83;1878626;76;25672;-86
2022/04/15 07:03:17;;;;;;;11.08;6.85;;;;;;;20.87;52.27;98946.60;1878125;76;25636;-86
2022/04/15 07:05:44;;;;;;;9.75;7.20;;;;;;;20.87;52.35;98950.00;1878825;76;26762;-84
2022/04/15 07:08:11;;;;;;;10.70;7.08;;;;;;;20.86;52.37;98946.98;1874594;76;25447;-86
2022/04/15 07:10:38;;;;;;;8.75;7.17;;;;;;;20.87;52.36;98946.60;1878740;76;25657;-86
2022/04/15 07:13:05;;;;;;;10.30;6.90;;;;;;;20.89;52.41;98945.65;1878670;76;25633;-86
2022/04/15 07:15:32;;;;;;;9.48;7.05;;;;;;;20.89;52.37;98944.26;1878668;76;25759;-85
2022/04/15 07:18:03;;;;;;;11.10;7.47;;;;;;;20.89;52.41;98945.65;1878831;76;27328;-85
2022/04/15 07:20:26;;;;;;;10.72;7.28;;;;;;;20.89;52.39;98945.65;1875537;76;25605;-83
2022/04/15 07:22:58;;;;;;;9.80;7.20;;;;;;;20.91;52.35;98943.91;1878937;76;25550;-83
2022/04/15 07:25:25;;;;;;;9.98;6.97;;;;;;;20.91;52.38;98950.30;1878677;76;26512;-82
2022/04/15 07:27:53;;;;;;;9.60;7.05;;;;;;;20.91;52.40;98954.47;1878644;76;25637;-83
2022/04/15 07:30:20;;;;;;;9.05;6.83;;;;;;;20.91;52.36;98959.23;1878284;76;28294;-84
2022/04/15 07:32:47;;;;;;;11.43;7.35;;;;;;;20.91;52.37;98962.83;1878775;76;25678;-83
2022/04/15 07:35:13;;;;;;;8.88;7.12;;;;;;;20.93;52.34;98970.20;1878723;76;25661;-83
2022/04/15 07:37:40;;;;;;;9.75;6.87;;;;;;;20.93;52.32;98967.41;1878685;76;25609;-83
2022/04/15 07:40:08;;;;;;;9.50;7.20;;;;;;;20.93;52.30;98972.20;1879204;76;25637;-83
2022/04/15 07:42:34;;;;;;;8.68;6.83;;;;;;;20.92;52.24;98965.81;1878930;76;28212;-83
2022/04/15 07:45:00;;;;;;;9.40;6.75;;;;;;;20.92;52.43;98969.18;1878793;76;25888;-82
2022/04/15 07:47:27;;;;;;;10.70;6.62;;;;;;;20.95;52.36;98971.22;1878866;76;25642;-83
2022/04/15 07:49:53;;;;;;;9.73;6.90;;;;;;;20.93;52.27;98966.63;1878442;76;25515;-84
2022/04/15 07:52:20;;;;;;;8.43;6.37;;;;;;;20.95;52.18;98975.39;1879082;76;25536;-83
2022/04/15 07:54:46;;;;;;;8.78;6.87;;;;;;;20.94;52.21;98977.98;1878851;76;27401;-83
2022/04/15 07:57:12;;;;;;;8.83;6.90;;;;;;;20.96;52.17;98977.59;1878823;76;25443;-84
2022/04/15 07:59:39;;;;;;;8.78;6.62;;;;;;;20.97;52.12;98977.80;1879041;76;25403;-86
2022/04/15 08:02:06;;;;;;;8.55;6.83;;;;;;;20.96;52.05;98975.62;1878895;76;26468;-83
2022/04/15 08:04:36;;;;;;;9.03;6.70;;;;;;;20.98;51.99;98974.64;1878708;76;25697;-83
2022/04/15 08:07:02;;;;;;;8.78;6.53;;;;;;;21.00;51.95;98976.47;1875553;76;25823;-83
2022/04/15 08:09:28;;;;;;;8.28;6.08;;;;;;;20.99;52.00;98980.45;1878290;76;25694;-83
2022/04/15 08:11:55;;;;;;;7.87;6.08;;;;;;;20.97;52.04;98984.19;1879075;76;25626;-85
2022/04/15 08:14:21;;;;;;;10.18;6.40;;;;;;;20.98;52.06;98979.42;1878514;76;25729;-84
2022/04/15 08:16:48;;;;;;;8.95;6.00;;;;;;;20.96;52.00;98981.78;1878945;76;25415;-84
2022/04/15 08:19:14;;;;;;;8.10;5.70;;;;;;;20.98;52.04;98977.43;1878981;76;27333;-87
2022/04/15 08:21:40;;;;;;;7.15;6.00;;;;;;;20.99;52.00;98976.84;1878816;76;25602;-83
2022/04/15 08:24:07;;;;;;;7.92;6.15;;;;;;;20.97;51.86;98983.38;1879001;76;25636;-87
2022/04/15 08:26:34;;;;;;;7.78;5.72;;;;;;;20.97;51.90;98981.41;1878773;76;25741;-87
2022/04/15 08:29:00;;;;;;;8.08;6.15;;;;;;;20.99;51.89;98978.23;1878927;76;25625;-87
2022/04/15 08:31:26;;;;;;;7.97;5.47;;;;;;;20.99;51.92;98982.42;1878956;76;27325;-88
2022/04/15 08:33:53;;;;;;;8.00;5.50;;;;;;;20.99;51.91;98980.45;1878876;76;25581;-89
2022/04/15 08:36:19;;;;;;;8.28;5.55;;;;;;;21.01;51.86;98984.25;1879061;76;25491;-87
2022/04/15 08:38:45;;;;;;;8.70;5.47;;;;;;;20.98;51.84;98984.39;1878584;76;25728;-88
2022/04/15 08:41:14;;;;;;;7.50;5.40;;;;;;;21.00;51.79;98982.63;1879052;76;25637;-84
2022/04/15 08:43:42;;;;;;;7.78;5.58;;;;;;;21.03;51.76;98977.11;1878477;76;27410;-84
2022/04/15 08:46:10;;;;;;;6.05;5.05;;;;;;;21.02;51.78;98977.48;1878750;76;25902;-84
2022/04/15 08:48:39;;;;;;;8.50;5.33;;;;;;;21.03;51.80;98981.88;1878770;76;25622;-84
2022/04/15 08:51:07;;;;;;;9.90;5.20;;;;;;;21.03;51.86;98976.30;1878525;76;25735;-83
2022/04/15 08:53:33;;;;;;;7.80;5.50;;;;;;;21.01;51.87;98985.03;1879008;76;25654;-84
2022/04/15 08:56:01;;;;;;;7.25;5.28;;;;;;;21.01;51.88;98992.61;1878869;76;27431;-85
2022/04/15 08:58:27;;;;;;;6.92;5.30;;;;;;;21.01;51.91;98982.86;1878648;76;25638;-83
2022/04/15 09:00:54;;;;;;;6.50;5.30;;;;;;;21.03;51.91;98984.08;1878946;76;25668;-84
2022/04/15 09:03:20;;;;;;;8.20;6.00;;;;;;;21.05;51.91;98996.23;1876473;76;26626;-83
2022/04/15 09:05:51;;;;;;;7.08;4.87;;;;;;;21.06;51.98;98990.29;1878172;76;25621;-84
2022/04/15 09:08:17;;;;;;;10.38;5.37;;;;;;;21.06;51.98;98988.89;1878884;76;27484;-84
2022/04/15 09:10:48;;;;;;;6.75;5.12;;;;;;;21.09;51.91;98992.09;1879085;76;25594;-84
2022/04/15 09:13:23;;;;;;;6.37;5.08;;;;;;;21.10;51.94;98990.31;1877486;76;25593;-83
2022/04/15 09:15:50;;;;;;;8.85;5.42;;;;;;;21.10;51.92;98989.53;1879092;76;25744;-84
2022/04/15 09:18:39;;;;;;;8.30;5.10;;;;;;;21.09;51.95;98988.72;1879163;76;25698;-84
2022/04/15 09:21:24;;;;;;;7.35;5.28;;;;;;;21.09;52.05;98993.48;1878775;76;28279;-85
2022/04/15 09:23:56;;;;;;;8.40;5.50;;;;;;;21.07;52.12;98992.47;1878673;76;25700;-85
2022/04/15 09:26:24;;;;;;;7.65;5.15;;;;;;;21.08;52.20;98991.89;1878959;76;25562;-85
2022/04/15 09:28:53;;;;;;;6.45;5.20;;;;;;;21.05;52.35;98986.48;1879074;76;25850;-84
2022/04/15 09:31:23;;;;;;;6.55;5.08;;;;;;;21.04;52.23;98991.24;1879088;76;25562;-85
2022/04/15 09:33:56;;;;;;;7.75;5.80;;;;;;;21.04;52.30;98987.67;1879258;76;27458;-84
2022/04/15 09:36:27;;;;;;;6.28;5.35;;;;;;;21.06;52.37;98989.47;1879037;76;25725;-84
2022/04/15 09:39:04;;;;;;;8.63;5.50;;;;;;;21.08;52.29;98978.77;1877723;76;25596;-86
2022/04/15 09:41:31;;;;;;;7.45;5.17;;;;;;;21.11;52.19;98984.16;1878736;76;25871;-84
2022/04/15 09:44:00;;;;;;;6.92;5.15;;;;;;;21.11;52.13;98976.62;1878576;76;25420;-84
2022/04/15 09:46:29;;;;;;;6.50;5.13;;;;;;;21.12;52.05;98974.03;1878694;76;28165;-85
2022/04/15 09:49:06;;;;;;;5.92;4.75;;;;;;;21.13;52.04;98970.67;1878162;76;25661;-88
2022/04/15 09:51:46;;;;;;;6.00;4.83;;;;;;;21.14;52.06;98974.47;1878399;76;25362;-87
2022/04/15 09:54:24;;;;;;;7.83;5.20;;;;;;;21.17;52.03;98968.14;1878351;76;25729;-85
2022/04/15 09:56:53;;;;;;;6.45;4.80;;;;;;;21.19;51.85;98966.38;1878825;76;25423;-91
2022/04/15 09:59:23;;;;;;;7.17;5.40;;;;;;;21.22;51.83;98966.20;1879015;76;27489;-90
2022/04/15 10:02:02;;;;;;;8.20;5.60;;;;;;;21.23;51.67;98960.25;1878513;76;25385;-91
2022/04/15 10:04:31;;;;;;;7.17;5.60;;;;;;;21.23;51.65;98960.83;1878420;76;25412;-84
2022/04/15 10:07:00;;;;;;;7.35;5.35;;;;;;;21.22;51.63;98954.47;1878215;76;25740;-84
2022/04/15 10:09:27;;;;;;;6.87;5.17;;;;;;;21.25;51.55;98955.11;1878267;76;25645;-85
2022/04/15 10:11:56;;;;;;;7.37;5.05;;;;;;;21.26;51.50;98957.28;1878795;76;27291;-85
2022/04/15 10:14:24;;;;;;;7.15;4.80;;;;;;;21.27;51.44;98954.11;1878273;76;25829;-88
2022/04/15 10:16:52;;;;;;;6.80;5.10;;;;;;;21.28;51.40;98952.95;1878653;76;25374;-87
2022/04/15 10:19:20;;;;;;;6.20;4.97;;;;;;;21.29;51.38;98951.77;1878838;76;25699;-89
2022/04/15 10:21:51;;;;;;;6.45;5.10;;;;;;;21.30;51.34;98953.36;1878392;76;25638;-90
2022/04/15 10:24:17;;;;;;;;;;;;;;;21.30;51.31;98950.57;1881490;76;27502;-87
2022/04/15 10:26:52;;;;;;;6.08;4.87;;;;;;;21.30;51.28;98938.64;1878658;76;25611;-85
2022/04/15 10:29:18;;;;;;;6.70;4.87;;;;;;;21.28;51.25;98933.44;1878412;76;25354;-88
2022/04/15 10:31:48;;;;;;;6.65;4.60;;;;;;;21.28;51.26;98936.23;1878753;76;25683;-86
2022/04/15 10:34:19;;;;;;;7.75;4.95;;;;;;;21.28;51.25;98930.66;1878873;76;25425;-87
2022/04/15 10:36:51;;;;;;;6.03;5.10;;;;;;;21.27;51.26;98934.61;1878581;76;27559;-85
2022/04/15 10:39:26;;;;;;;5.25;4.70;;;;;;;21.29;51.23;98932.83;1878512;76;25709;-90
2022/04/15 10:41:56;;;;;;;5.87;5.00;;;;;;;21.29;51.18;98936.43;1879064;76;25569;-88
2022/04/15 10:44:39;;;;;;;6.70;4.83;;;;;;;21.29;51.18;98932.25;1878582;76;25721;-88
2022/04/15 10:47:19;;;;;;;6.25;4.97;;;;;;;21.29;51.16;98935.63;1878702;76;25657;-88
2022/04/15 10:50:01;;;;;;;7.28;4.87;;;;;;;21.28;51.14;98930.66;1879267;76;27382;-90
2022/04/15 10:52:30;;;;;;;5.72;4.72;;;;;;;21.28;51.11;98929.84;1878185;76;25382;-86
2022/04/15 10:55:05;;;;;;;6.10;4.75;;;;;;;21.26;51.11;98923.25;1878514;76;25673;-91
2022/04/15 10:57:40;;;;;;;6.25;4.85;;;;;;;21.28;51.08;98924.27;1878876;76;25841;-89
2022/04/15 11:03:21;;;;;;;6.85;5.00;;;;;;;21.29;51.08;98914.72;1878653;76;26591;-91
2022/04/15 11:05:52;;;;;;;5.95;4.85;;;;;;;21.29;51.05;98915.53;1878315;76;25617;-91
2022/04/15 11:08:24;;;;;;;6.92;4.90;;;;;;;21.30;50.93;98910.77;1879290;76;25689;-91
2022/04/15 11:10:57;;;;;;;6.03;5.12;;;;;;;21.29;50.89;98910.53;1878904;76;25674;-91
2022/04/15 11:13:47;;;;;;;5.85;4.95;;;;;;;21.28;50.89;98906.97;1878728;76;25745;-91
2022/04/15 11:16:14;;;;;;;6.10;4.83;;;;;;;21.30;50.96;98909.38;1879426;76;27350;-89
2022/04/15 11:18:56;;;;;;;7.22;5.37;;;;;;;21.31;50.94;98907.60;1878909;76;25622;-91
2022/04/15 11:21:30;;;;;;;6.30;4.67;;;;;;;21.31;50.96;98906.78;1879071;76;25594;-91
2022/04/15 11:24:08;;;;;;;5.95;4.70;;;;;;;21.30;50.98;98907.98;1878682;76;25632;-90
2022/04/15 11:26:38;;;;;;;5.35;4.78;;;;;;;21.29;51.02;98904.37;1878756;76;25452;-85
2022/04/15 11:29:09;;;;;;;6.60;4.70;;;;;;;21.30;51.02;98900.40;1878914;76;27343;-84
2022/04/15 11:31:41;;;;;;;6.03;5.00;;;;;;;21.33;51.05;98907.80;1878469;76;25551;-85
2022/04/15 11:34:13;;;;;;;5.10;4.00;;;;;;;21.31;51.09;98913.17;1879025;76;25538;-84
2022/04/15 11:36:46;;;;;;;6.20;4.55;;;;;;;21.33;51.10;98895.26;1878303;76;27414;-85
2022/04/15 11:39:21;;;;;;;6.33;4.45;;;;;;;21.32;51.06;98887.48;1878773;76;25729;-84
2022/04/15 11:41:52;;;;;;;5.80;4.53;;;;;;;21.32;51.07;98891.66;1878878;76;28070;-84